Belmont, Ohio
Current Conditions -  °F | °C
As of 7:53 AM on Tuesday 21 Oct 2014 (Local Time) from KHLG Reporting Station
Haze Haze  
Wind Chill: 50°   Ceiling: 600
Heat Index: 50°   Visibility: 3mi
Dew Point: 48°   Wind: 5mph
Humidity: 93%   Direction: 240°WSW
Pressure: 29.87"   Gusts: NA
Location:  40.03°N, 81.04°W
Report Text: KHLG 211153Z 24004KT 3SM BR OVC006 10/09 A2987 RMK AO2 SLP117 60000 70012 T01000089 10100 20094 51004
Loading
Personal Weather Stations






























Interactive Weather Map
Tropical Storm Tracking
New forecast layout! Learn more

10-Day Weather Forecast

Advertisements
Track Severe Weather on mobile